createdAt,value
2018-12-25T00:00:18.049Z,1.77
2018-12-25T00:02:49.159Z,1.10
2018-12-25T00:05:19.779Z,1.47
2018-12-25T00:07:50.356Z,1.67
2018-12-25T00:10:20.937Z,1.83
2018-12-25T00:12:51.574Z,1.63
2018-12-25T00:15:22.187Z,1.70
2018-12-25T00:17:52.835Z,1.40
2018-12-25T00:20:23.407Z,1.77
2018-12-25T00:22:54.109Z,1.43
2018-12-25T00:25:24.714Z,1.90
2018-12-25T00:27:55.290Z,1.77
2018-12-25T00:30:25.981Z,2.00
2018-12-25T00:32:56.532Z,2.00
2018-12-25T00:35:27.193Z,1.73
2018-12-25T00:37:57.835Z,1.37
2018-12-25T00:40:28.393Z,1.57
2018-12-25T00:42:58.986Z,1.50
2018-12-25T00:45:29.607Z,1.23
2018-12-25T00:48:01.527Z,1.10
2018-12-25T00:50:32.638Z,1.60
2018-12-25T00:53:03.309Z,1.10
2018-12-25T00:55:33.914Z,1.40
2018-12-25T00:58:04.491Z,1.13
2018-12-25T01:00:35.110Z,1.17
2018-12-25T01:03:05.793Z,1.77
2018-12-25T01:05:36.413Z,2.40
2018-12-25T01:08:07.012Z,1.00
2018-12-25T01:10:37.689Z,2.53
2018-12-25T01:13:08.266Z,1.50
2018-12-25T01:15:38.858Z,1.00
2018-12-25T01:18:09.474Z,2.40
2018-12-25T01:20:40.090Z,1.20
2018-12-25T01:23:10.730Z,1.30
2018-12-25T01:25:41.281Z,1.63
2018-12-25T01:28:12.018Z,2.30
2018-12-25T01:30:42.570Z,2.30
2018-12-25T01:33:13.192Z,1.43
2018-12-25T01:35:43.772Z,1.50
2018-12-25T01:38:14.375Z,1.10
2018-12-25T01:40:45.012Z,1.93
2018-12-25T01:43:16.303Z,1.20
2018-12-25T01:45:46.910Z,1.23
2018-12-25T01:48:18.110Z,1.53
2018-12-25T01:50:48.734Z,1.03
2018-12-25T01:53:19.928Z,1.93
2018-12-25T01:55:50.734Z,1.20
2018-12-25T01:58:21.710Z,1.77
2018-12-25T02:00:54.046Z,1.37
2018-12-25T02:03:24.757Z,1.43
2018-12-25T02:05:56.048Z,1.30
2018-12-25T02:08:27.188Z,1.00
2018-12-25T02:10:58.334Z,1.10
2018-12-25T02:13:29.475Z,1.73
2018-12-25T02:16:00.406Z,1.17
2018-12-25T02:18:31.560Z,1.40
2018-12-25T02:21:02.904Z,1.40
2018-12-25T02:23:33.780Z,1.03
2018-12-25T02:26:04.831Z,1.60
2018-12-25T02:28:46.910Z,1.33
2018-12-25T02:31:18.432Z,0.97
2018-12-25T02:33:49.396Z,1.10
2018-12-25T02:36:20.210Z,1.37
2018-12-25T02:38:50.960Z,1.20
2018-12-25T02:41:21.792Z,3.03
2018-12-25T02:43:52.584Z,1.30
2018-12-25T02:46:23.759Z,1.60
2018-12-25T02:48:54.906Z,1.00
2018-12-25T02:51:25.696Z,1.30
2018-12-25T02:53:56.646Z,2.03
2018-12-25T02:56:27.641Z,2.57
2018-12-25T02:58:58.517Z,1.70
2018-12-25T03:01:29.567Z,2.10
2018-12-25T03:04:00.365Z,1.90
2018-12-25T03:06:32.205Z,1.87
2018-12-25T03:09:04.316Z,2.20
2018-12-25T03:11:35.279Z,2.60
2018-12-25T03:14:06.270Z,1.73
2018-12-25T03:16:37.261Z,1.90
2018-12-25T03:19:08.158Z,1.50
2018-12-25T03:21:38.922Z,2.40
2018-12-25T03:24:09.535Z,1.60
2018-12-25T03:26:40.098Z,1.83
2018-12-25T03:29:10.700Z,2.83
2018-12-25T03:31:41.289Z,2.60
2018-12-25T03:34:11.886Z,1.60
2018-12-25T03:36:42.459Z,1.70
2018-12-25T03:39:13.061Z,1.53
2018-12-25T03:41:43.644Z,2.40
2018-12-25T03:44:14.238Z,2.03
2018-12-25T03:46:44.850Z,1.60
2018-12-25T03:49:15.475Z,2.87
2018-12-25T03:51:46.040Z,2.23
2018-12-25T03:54:16.676Z,2.03
2018-12-25T03:56:47.288Z,1.70
2018-12-25T03:59:17.858Z,2.30
2018-12-25T04:01:48.497Z,2.37
2018-12-25T04:04:19.059Z,1.53
2018-12-25T04:06:49.748Z,2.33
2018-12-25T04:09:20.333Z,1.40
2018-12-25T04:11:50.882Z,2.03
2018-12-25T04:14:21.480Z,2.50
2018-12-25T04:16:52.167Z,1.30
2018-12-25T04:19:22.673Z,1.23
2018-12-25T04:21:53.234Z,2.30
2018-12-25T04:24:24.054Z,1.60
2018-12-25T04:26:55.152Z,2.10
2018-12-25T04:29:25.954Z,1.90
2018-12-25T04:31:57.410Z,2.40
2018-12-25T04:34:28.158Z,3.03
2018-12-25T04:36:58.970Z,2.13
2018-12-25T04:39:31.610Z,1.30
2018-12-25T04:42:02.188Z,1.60
2018-12-25T04:44:32.846Z,2.30
2018-12-25T04:47:03.431Z,1.87
2018-12-25T04:49:34.008Z,1.73
2018-12-25T04:52:04.621Z,2.00
2018-12-25T04:54:35.298Z,1.70
2018-12-25T04:57:05.823Z,1.80
2018-12-25T04:59:36.434Z,2.20
2018-12-25T05:02:07.023Z,1.53
2018-12-25T05:04:37.632Z,1.40
2018-12-25T05:07:08.171Z,1.93
2018-12-25T05:09:38.733Z,1.77
2018-12-25T05:12:09.296Z,1.67
2018-12-25T05:14:39.901Z,2.13
2018-12-25T05:17:10.400Z,1.80
2018-12-25T05:19:41.011Z,2.27
2018-12-25T05:22:11.572Z,2.90
2018-12-25T05:24:42.284Z,2.13
2018-12-25T05:27:12.858Z,1.63
2018-12-25T05:29:43.446Z,1.40
2018-12-25T05:32:14.047Z,2.50
2018-12-25T05:34:44.611Z,1.87
2018-12-25T05:37:15.188Z,1.43
2018-12-25T05:39:49.172Z,1.63
2018-12-25T05:42:19.985Z,1.70
2018-12-25T05:44:51.088Z,3.43
2018-12-25T05:47:22.176Z,1.90
2018-12-25T05:49:53.063Z,1.90
2018-12-25T05:52:23.935Z,1.60
2018-12-25T05:54:54.647Z,1.70
2018-12-25T05:57:25.512Z,1.70
2018-12-25T05:59:56.431Z,1.80
2018-12-25T06:02:27.626Z,1.50
2018-12-25T06:04:58.857Z,1.90
2018-12-25T06:07:30.017Z,2.40
2018-12-25T06:10:01.042Z,1.80
2018-12-25T06:12:31.842Z,2.90
2018-12-25T06:15:02.707Z,1.20
2018-12-25T06:17:33.977Z,1.30
2018-12-25T06:20:05.491Z,1.73
2018-12-25T06:22:36.593Z,1.97
2018-12-25T06:25:08.022Z,2.57
2018-12-25T06:27:38.783Z,2.37
2018-12-25T06:30:09.573Z,2.10
2018-12-25T06:32:40.291Z,2.40
2018-12-25T06:35:10.905Z,1.63
2018-12-25T06:37:41.733Z,1.67
2018-12-25T06:40:12.683Z,1.67
2018-12-25T06:42:43.975Z,2.57
2018-12-25T06:45:14.758Z,1.10
2018-12-25T06:47:45.417Z,1.53
2018-12-25T06:50:16.565Z,1.73
2018-12-25T06:52:47.219Z,1.50
2018-12-25T06:55:18.077Z,1.97
2018-12-25T06:57:48.784Z,2.60
2018-12-25T07:00:19.590Z,1.63
2018-12-25T07:02:50.867Z,2.17
2018-12-25T07:05:21.701Z,2.70
2018-12-25T07:07:53.057Z,1.10
2018-12-25T07:10:24.275Z,1.73
2018-12-25T07:12:55.193Z,1.63
2018-12-25T07:15:33.144Z,1.83
2018-12-25T07:17:58.473Z,2.77
2018-12-25T07:20:30.003Z,2.20
2018-12-25T07:23:02.377Z,2.53
2018-12-25T07:25:33.275Z,2.80
2018-12-25T07:28:04.182Z,3.90
2018-12-25T07:30:35.243Z,2.57
2018-12-25T07:33:06.061Z,3.30
2018-12-25T07:35:37.359Z,2.73
2018-12-25T07:38:08.272Z,1.60
2018-12-25T07:40:38.874Z,2.43
2018-12-25T07:43:09.635Z,3.03
2018-12-25T07:45:40.185Z,2.50
2018-12-25T07:48:11.357Z,3.20
2018-12-25T07:50:41.911Z,1.63
2018-12-25T07:53:12.527Z,2.27
2018-12-25T07:55:43.163Z,2.33
2018-12-25T07:58:13.783Z,2.33
2018-12-25T08:00:44.349Z,2.87
2018-12-25T08:03:14.963Z,2.73
2018-12-25T08:05:45.520Z,2.07
2018-12-25T08:08:16.229Z,3.17
2018-12-25T08:10:46.863Z,2.00
2018-12-25T08:13:17.558Z,3.30
2018-12-25T08:15:48.158Z,3.03
2018-12-25T08:18:19.023Z,2.00
2018-12-25T08:20:50.349Z,2.17
2018-12-25T08:23:21.483Z,2.73
2018-12-25T08:25:52.650Z,3.40
2018-12-25T08:28:23.625Z,3.40
2018-12-25T08:30:54.663Z,3.33
2018-12-25T08:33:25.885Z,3.17
2018-12-25T08:35:57.018Z,2.43
2018-12-25T08:38:28.367Z,3.03
2018-12-25T08:40:59.395Z,4.17
2018-12-25T08:43:30.660Z,196.10
2018-12-25T08:46:01.424Z,86.37
2018-12-25T08:48:32.290Z,93.20
2018-12-25T08:51:03.129Z,75.13
2018-12-25T08:53:33.970Z,68.43
2018-12-25T08:56:07.360Z,57.00
2018-12-25T08:58:37.960Z,66.77
2018-12-25T09:01:08.549Z,50.40
2018-12-25T09:03:39.252Z,53.67
2018-12-25T09:06:10.336Z,46.23
2018-12-25T09:08:41.173Z,43.83
2018-12-25T09:11:11.991Z,38.20
2018-12-25T09:13:45.365Z,35.47
2018-12-25T09:16:16.314Z,34.00
2018-12-25T09:18:47.209Z,38.87
2018-12-25T09:21:17.984Z,69.57
2018-12-25T09:23:56.768Z,78.97
2018-12-25T09:26:31.760Z,88.13
2018-12-25T09:29:06.218Z,82.80
2018-12-25T09:31:37.262Z,86.40
2018-12-25T09:34:08.143Z,70.47
2018-12-25T09:36:38.965Z,62.80
2018-12-25T09:39:09.645Z,61.33
2018-12-25T09:41:40.308Z,54.90
2018-12-25T09:44:10.994Z,46.40
2018-12-25T09:46:41.617Z,39.60
2018-12-25T09:49:12.201Z,41.40
2018-12-25T09:51:43.038Z,39.17
2018-12-25T09:54:13.599Z,31.40
2018-12-25T09:56:44.730Z,29.77
2018-12-25T09:59:15.643Z,31.10
2018-12-25T10:01:46.468Z,27.60
2018-12-25T10:04:17.347Z,26.20
2018-12-25T10:06:48.323Z,21.83
2018-12-25T10:09:19.701Z,21.03
2018-12-25T10:11:50.335Z,19.87
2018-12-25T10:14:20.908Z,19.90
2018-12-25T10:16:51.454Z,17.20
2018-12-25T10:19:22.107Z,16.77
2018-12-25T10:21:52.672Z,17.53
2018-12-25T10:24:23.296Z,13.83
2018-12-25T10:26:53.859Z,12.13
2018-12-25T10:29:24.461Z,12.70
2018-12-25T10:31:55.096Z,11.73
2018-12-25T10:34:26.089Z,10.47
2018-12-25T10:36:56.873Z,10.83
2018-12-25T10:39:27.675Z,9.50
2018-12-25T10:41:58.741Z,8.10
2018-12-25T10:44:29.761Z,7.33
2018-12-25T10:47:00.971Z,8.83
2018-12-25T10:49:31.834Z,7.80
2018-12-25T10:52:02.680Z,6.97
2018-12-25T10:54:33.966Z,7.50
2018-12-25T10:57:05.135Z,6.13
2018-12-25T10:59:36.008Z,6.47
2018-12-25T11:02:07.013Z,6.20
2018-12-25T11:04:38.253Z,4.33
2018-12-25T11:07:09.983Z,4.00
2018-12-25T11:09:40.657Z,6.37
2018-12-25T11:12:11.276Z,3.80
2018-12-25T11:14:42.758Z,4.27
2018-12-25T11:17:13.853Z,4.20
2018-12-25T11:19:45.223Z,3.40
2018-12-25T11:22:19.781Z,3.57
2018-12-25T11:24:48.618Z,3.13
2018-12-25T11:27:19.875Z,2.80
2018-12-25T11:29:50.526Z,2.30
2018-12-25T11:32:21.421Z,2.37
2018-12-25T11:34:52.304Z,2.83
2018-12-25T11:37:23.104Z,2.43
2018-12-25T11:39:53.986Z,2.77
2018-12-25T11:42:25.700Z,2.00
2018-12-25T11:44:56.849Z,1.83
2018-12-25T11:47:27.519Z,2.33
2018-12-25T11:50:00.694Z,1.93
2018-12-25T11:52:31.943Z,1.93
2018-12-25T11:55:02.714Z,1.47
2018-12-25T11:57:34.390Z,1.90
2018-12-25T12:00:06.166Z,2.30
2018-12-25T12:02:36.925Z,2.70
2018-12-25T12:05:07.782Z,1.70
2018-12-25T12:07:38.758Z,2.17
2018-12-25T12:10:10.334Z,2.10
2018-12-25T12:12:41.038Z,2.50
2018-12-25T12:15:11.940Z,2.20
2018-12-25T12:17:42.529Z,2.03
2018-12-25T12:20:13.302Z,1.70
2018-12-25T12:22:44.083Z,2.60
2018-12-25T12:25:15.470Z,2.23
2018-12-25T12:27:46.374Z,1.47
2018-12-25T12:30:17.362Z,1.33
2018-12-25T12:32:48.203Z,1.70
2018-12-25T12:35:18.982Z,2.30
2018-12-25T12:37:50.622Z,1.73
2018-12-25T12:40:21.201Z,1.67
2018-12-25T12:42:51.758Z,1.70
2018-12-25T12:45:22.393Z,1.27
2018-12-25T12:47:52.930Z,1.53
2018-12-25T12:50:23.543Z,1.50
2018-12-25T12:52:54.327Z,2.07
2018-12-25T12:55:24.927Z,1.30
2018-12-25T12:57:55.502Z,1.50
2018-12-25T13:00:26.403Z,1.47
2018-12-25T13:02:57.267Z,1.63
2018-12-25T13:05:28.183Z,2.10
2018-12-25T13:07:59.279Z,1.50
2018-12-25T13:10:29.886Z,2.33
2018-12-25T13:13:00.515Z,1.73
2018-12-25T13:15:31.252Z,1.47
2018-12-25T13:18:01.962Z,1.73
2018-12-25T13:20:32.743Z,2.43
2018-12-25T13:23:04.032Z,1.23
2018-12-25T13:25:34.756Z,3.37
2018-12-25T13:28:05.517Z,1.90
2018-12-25T13:30:36.116Z,2.47
2018-12-25T13:33:06.773Z,1.80
2018-12-25T13:35:37.654Z,1.33
2018-12-25T13:38:08.248Z,1.57
2018-12-25T13:40:38.953Z,1.30
2018-12-25T13:43:09.471Z,2.00
2018-12-25T13:45:40.087Z,2.10
2018-12-25T13:48:10.666Z,1.63
2018-12-25T13:50:41.255Z,1.50
2018-12-25T13:53:16.673Z,1.13
2018-12-25T13:55:55.812Z,2.13
2018-12-25T13:58:27.461Z,2.03
2018-12-25T14:00:58.279Z,1.77
2018-12-25T14:03:30.235Z,2.20
2018-12-25T14:06:01.161Z,2.10
2018-12-25T14:08:32.241Z,2.30
2018-12-25T14:11:03.007Z,1.83
2018-12-25T14:13:34.509Z,1.73
2018-12-25T14:16:05.387Z,2.20
2018-12-25T14:18:36.169Z,1.60
2018-12-25T14:21:06.944Z,1.87
2018-12-25T14:23:38.338Z,1.90
2018-12-25T14:26:09.921Z,1.53
2018-12-25T14:28:41.229Z,2.00
2018-12-25T14:31:12.200Z,2.73
2018-12-25T14:33:43.399Z,2.33
2018-12-25T14:36:14.490Z,2.43
2018-12-25T14:38:45.823Z,2.83
2018-12-25T14:41:17.083Z,2.47
2018-12-25T14:43:48.227Z,2.80
2018-12-25T14:46:19.159Z,3.23
2018-12-25T14:48:50.403Z,2.43
2018-12-25T14:51:21.317Z,2.67
2018-12-25T14:53:52.587Z,1.77
2018-12-25T14:56:23.721Z,2.90
2018-12-25T14:58:54.727Z,3.00
2018-12-25T15:01:25.489Z,3.03
2018-12-25T15:03:56.528Z,3.53
2018-12-25T15:06:27.691Z,3.47
2018-12-25T15:08:58.450Z,4.00
2018-12-25T15:11:29.553Z,3.27
2018-12-25T15:14:00.351Z,4.37
2018-12-25T15:16:31.176Z,3.20
2018-12-25T15:19:02.154Z,3.17
2018-12-25T15:21:32.942Z,4.10
2018-12-25T15:24:03.725Z,4.77
2018-12-25T15:26:34.995Z,4.63
2018-12-25T15:29:06.139Z,4.93
2018-12-25T15:31:36.921Z,3.80
2018-12-25T15:34:07.924Z,4.53
2018-12-25T15:36:40.795Z,4.50
2018-12-25T15:39:13.032Z,3.80
2018-12-25T15:41:44.054Z,4.50
2018-12-25T15:44:15.144Z,3.90
2018-12-25T15:46:46.090Z,3.27
2018-12-25T15:49:17.017Z,4.57
2018-12-25T15:51:47.890Z,3.77
2018-12-25T15:54:18.792Z,3.70
2018-12-25T15:56:49.566Z,4.30
2018-12-25T15:59:20.349Z,4.83
2018-12-25T16:01:51.824Z,5.73
2018-12-25T16:04:23.068Z,4.67
2018-12-25T16:06:54.330Z,5.00
2018-12-25T16:09:25.349Z,4.50
2018-12-25T16:11:56.262Z,4.63
2018-12-25T16:14:27.200Z,4.83
2018-12-25T16:16:58.157Z,4.67
2018-12-25T16:19:29.147Z,4.43
2018-12-25T16:21:59.938Z,4.10
2018-12-25T16:24:30.614Z,4.87
2018-12-25T16:27:01.708Z,4.27
2018-12-25T16:29:32.584Z,5.40
2018-12-25T16:32:03.435Z,4.37
2018-12-25T16:34:34.219Z,5.90
2018-12-25T16:37:05.071Z,4.73
2018-12-25T16:39:36.101Z,4.67
2018-12-25T16:42:07.238Z,5.60
2018-12-25T16:44:38.170Z,4.70
2018-12-25T16:47:09.323Z,4.07
2018-12-25T16:49:40.669Z,4.30
2018-12-25T16:52:11.438Z,4.13
2018-12-25T16:54:42.168Z,5.23
2018-12-25T16:57:15.328Z,4.60
2018-12-25T16:59:46.399Z,4.67
2018-12-25T17:02:17.613Z,5.27
2018-12-25T17:04:48.390Z,5.57
2018-12-25T17:07:19.376Z,4.30
2018-12-25T17:09:50.369Z,5.83
2018-12-25T17:12:21.262Z,4.80
2018-12-25T17:14:52.259Z,4.67
2018-12-25T17:17:23.131Z,4.77
2018-12-25T17:19:54.107Z,4.33
2018-12-25T17:22:24.974Z,4.60
2018-12-25T17:24:55.533Z,4.63
2018-12-25T17:27:26.139Z,4.83
2018-12-25T17:29:56.811Z,4.93
2018-12-25T17:32:27.419Z,5.83
2018-12-25T17:34:58.112Z,4.30
2018-12-25T17:37:29.578Z,5.27
2018-12-25T17:40:00.510Z,4.50
2018-12-25T17:42:31.508Z,4.20
2018-12-25T17:45:02.180Z,4.80
2018-12-25T17:47:32.794Z,5.10
2018-12-25T17:50:03.379Z,3.50
2018-12-25T17:52:33.933Z,4.00
2018-12-25T17:55:04.556Z,4.70
2018-12-25T17:57:35.122Z,5.10
2018-12-25T18:00:06.419Z,3.30
2018-12-25T18:02:36.991Z,4.40
2018-12-25T18:05:11.744Z,3.73
2018-12-25T18:07:39.705Z,4.23
2018-12-25T18:10:10.346Z,3.00
2018-12-25T18:12:40.907Z,4.30
2018-12-25T18:15:11.608Z,4.90
2018-12-25T18:17:42.198Z,3.43
2018-12-25T18:20:13.019Z,4.00
2018-12-25T18:22:43.683Z,3.40
2018-12-25T18:25:14.321Z,4.17
2018-12-25T18:27:44.890Z,3.40
2018-12-25T18:30:15.600Z,3.50
2018-12-25T18:32:46.465Z,3.40
2018-12-25T18:35:17.278Z,3.60
2018-12-25T18:37:48.046Z,3.77
2018-12-25T18:40:18.919Z,3.73
2018-12-25T18:42:50.236Z,4.17
2018-12-25T18:45:21.694Z,4.67
2018-12-25T18:47:52.939Z,3.80
2018-12-25T18:50:24.070Z,3.10
2018-12-25T18:52:54.988Z,3.80
2018-12-25T18:55:25.887Z,3.50
2018-12-25T18:57:56.866Z,3.43
2018-12-25T19:00:27.658Z,3.83
2018-12-25T19:02:58.561Z,4.00
2018-12-25T19:05:29.344Z,4.30
2018-12-25T19:08:00.135Z,3.80
2018-12-25T19:10:31.374Z,3.73
2018-12-25T19:13:02.258Z,3.20
2018-12-25T19:15:33.846Z,3.97
2018-12-25T19:18:04.664Z,3.73
2018-12-25T19:20:35.720Z,4.13
2018-12-25T19:23:06.515Z,3.70
2018-12-25T19:25:37.929Z,4.10
2018-12-25T19:28:08.800Z,4.90
2018-12-25T19:30:40.158Z,5.50
2018-12-25T19:33:11.262Z,4.83
2018-12-25T19:35:42.398Z,5.67
2018-12-25T19:38:13.536Z,6.07
2018-12-25T19:40:44.558Z,7.77
2018-12-25T19:43:15.619Z,4.70
2018-12-25T19:45:50.225Z,5.30
2018-12-25T19:48:21.520Z,6.03
2018-12-25T19:50:52.745Z,5.70
2018-12-25T19:53:23.541Z,5.47
2018-12-25T19:55:55.095Z,4.90
2018-12-25T19:58:26.253Z,5.90
2018-12-25T20:00:57.623Z,8.07
2018-12-25T20:03:28.777Z,5.60
2018-12-25T20:06:05.634Z,7.43
2018-12-25T20:09:05.275Z,5.47
2018-12-25T20:11:45.012Z,9.00
2018-12-25T20:14:34.954Z,9.17
2018-12-25T20:17:26.909Z,9.80
2018-12-25T20:20:00.700Z,8.63
2018-12-25T20:22:49.496Z,10.50
2018-12-25T20:25:47.304Z,9.70
2018-12-25T20:28:39.259Z,8.00
2018-12-25T20:31:31.400Z,8.00
2018-12-25T20:34:23.759Z,7.90
2018-12-25T20:37:06.451Z,9.47
2018-12-25T20:40:00.249Z,7.03
2018-12-25T20:43:08.969Z,7.20
2018-12-25T20:45:54.673Z,7.23
2018-12-25T20:48:45.033Z,7.57
2018-12-25T20:51:21.610Z,6.20
2018-12-25T20:54:16.332Z,6.50
2018-12-25T20:57:06.898Z,6.00
2018-12-25T20:59:43.482Z,6.20
2018-12-25T21:02:35.236Z,6.90
2018-12-25T21:05:42.322Z,5.87
2018-12-25T21:08:48.047Z,5.03
2018-12-25T21:11:21.780Z,6.40
2018-12-25T21:14:30.498Z,6.20
2018-12-25T21:17:39.290Z,5.20
2018-12-25T21:20:41.990Z,6.27
2018-12-25T21:23:49.033Z,6.50
2018-12-25T21:26:56.265Z,6.00
2018-12-25T21:29:27.596Z,5.03
2018-12-25T21:31:58.948Z,5.17
2018-12-25T21:34:29.781Z,6.07
2018-12-25T21:37:01.097Z,5.50
2018-12-25T21:39:32.052Z,5.00
2018-12-25T21:42:02.940Z,7.13
2018-12-25T21:44:34.162Z,8.10
2018-12-25T21:47:05.035Z,8.00
2018-12-25T21:49:39.123Z,7.77
2018-12-25T21:52:09.998Z,10.37
2018-12-25T21:54:41.945Z,8.37
2018-12-25T21:57:12.904Z,9.10
2018-12-25T21:59:44.975Z,8.43
2018-12-25T22:02:15.994Z,12.70
2018-12-25T22:04:47.240Z,7.53
2018-12-25T22:07:18.143Z,10.40
2018-12-25T22:09:49.497Z,9.00
2018-12-25T22:12:20.427Z,7.63
2018-12-25T22:14:51.674Z,8.23
2018-12-25T22:17:22.493Z,8.00
2018-12-25T22:19:53.406Z,7.90
2018-12-25T22:22:24.372Z,7.10
2018-12-25T22:24:55.058Z,7.07
2018-12-25T22:27:25.704Z,6.80
2018-12-25T22:29:57.490Z,7.27
2018-12-25T22:32:28.842Z,7.37
2018-12-25T22:35:00.861Z,6.33
2018-12-25T22:37:32.354Z,7.37
2018-12-25T22:40:03.644Z,6.20
2018-12-25T22:42:34.526Z,5.07
2018-12-25T22:45:07.036Z,6.27
2018-12-25T22:47:37.829Z,5.20
2018-12-25T22:50:08.787Z,7.40
2018-12-25T22:52:39.790Z,5.77
2018-12-25T22:55:10.672Z,6.23
2018-12-25T22:57:41.916Z,4.77
2018-12-25T23:00:13.213Z,5.00
2018-12-25T23:02:44.099Z,7.77
2018-12-25T23:05:14.964Z,6.80
2018-12-25T23:07:45.707Z,6.60
2018-12-25T23:10:17.082Z,6.63
2018-12-25T23:12:47.674Z,6.50
2018-12-25T23:15:18.297Z,6.97
2018-12-25T23:17:48.901Z,6.13
2018-12-25T23:20:28.606Z,7.00
2018-12-25T23:22:53.693Z,8.07
2018-12-25T23:25:25.302Z,7.70
2018-12-25T23:27:56.064Z,5.67
2018-12-25T23:30:26.781Z,7.80
2018-12-25T23:32:57.538Z,11.13
2018-12-25T23:35:28.751Z,8.30
2018-12-25T23:37:59.773Z,7.50
2018-12-25T23:40:30.549Z,10.20
2018-12-25T23:43:01.243Z,7.63
2018-12-25T23:45:32.609Z,7.27
2018-12-25T23:48:03.551Z,8.87
2018-12-25T23:50:34.419Z,9.40
2018-12-25T23:53:05.742Z,9.10
2018-12-25T23:55:36.981Z,8.10
2018-12-25T23:58:08.423Z,8.90
